createdAt,value
2022-11-25T00:00:10.284Z,0.00
2022-11-25T00:02:43.123Z,0.00
2022-11-25T00:05:10.171Z,0.00
2022-11-25T00:07:37.381Z,0.00
2022-11-25T00:10:08.302Z,0.00
2022-11-25T00:12:35.052Z,0.00
2022-11-25T00:15:02.021Z,0.00
2022-11-25T00:17:28.891Z,0.00
2022-11-25T00:19:57.160Z,0.00
2022-11-25T00:22:26.090Z,0.00
2022-11-25T00:24:52.816Z,0.01
2022-11-25T00:27:19.833Z,0.01
2022-11-25T00:29:46.562Z,0.00
2022-11-25T00:32:13.435Z,0.00
2022-11-25T00:34:40.182Z,0.06
2022-11-25T00:37:11.504Z,0.03
2022-11-25T00:39:38.256Z,0.02
2022-11-25T00:42:05.110Z,0.01
2022-11-25T00:44:32.171Z,0.00
2022-11-25T00:47:00.505Z,0.06
2022-11-25T00:49:27.992Z,0.03
2022-11-25T00:51:55.321Z,0.02
2022-11-25T00:54:23.605Z,0.01
2022-11-25T00:56:50.493Z,0.00
2022-11-25T00:59:17.997Z,0.00
2022-11-25T01:01:44.923Z,0.00
2022-11-25T01:04:12.193Z,0.00
2022-11-25T01:06:39.117Z,0.00
2022-11-25T01:09:07.615Z,0.00
2022-11-25T01:11:35.830Z,0.00
2022-11-25T01:14:02.718Z,0.00
2022-11-25T01:16:30.431Z,0.00
2022-11-25T01:19:00.124Z,0.20
2022-11-25T01:21:29.938Z,0.11
2022-11-25T01:23:59.605Z,0.06
2022-11-25T01:26:26.521Z,0.03
2022-11-25T01:28:56.765Z,0.02
2022-11-25T01:31:25.821Z,0.05
2022-11-25T01:33:54.783Z,0.02
2022-11-25T01:36:24.288Z,0.01
2022-11-25T01:38:53.701Z,0.01
2022-11-25T01:41:22.046Z,0.00
2022-11-25T01:44:12.929Z,0.00
2022-11-25T01:46:47.950Z,0.00
2022-11-25T01:49:17.675Z,0.00
2022-11-25T01:51:48.482Z,0.00
2022-11-25T01:54:19.563Z,0.00
2022-11-25T01:56:51.445Z,0.00
2022-11-25T01:59:20.106Z,0.00
2022-11-25T02:01:46.908Z,0.00
2022-11-25T02:04:17.393Z,0.00
2022-11-25T02:06:50.760Z,0.00
2022-11-25T02:09:18.837Z,0.00
2022-11-25T02:11:46.282Z,0.00
2022-11-25T02:14:14.694Z,0.00
2022-11-25T02:16:43.138Z,0.00
2022-11-25T02:19:25.798Z,0.00
2022-11-25T02:21:56.898Z,0.00
2022-11-25T02:24:30.203Z,0.00
2022-11-25T02:26:58.762Z,0.00
2022-11-25T02:29:26.246Z,0.00
2022-11-25T02:31:53.199Z,0.00
2022-11-25T02:34:20.018Z,0.00
2022-11-25T02:36:48.412Z,0.00
2022-11-25T02:39:15.245Z,0.00
2022-11-25T02:41:46.560Z,0.00
2022-11-25T02:44:15.046Z,0.00
2022-11-25T02:46:42.928Z,0.00
2022-11-25T02:49:10.547Z,0.00
2022-11-25T02:51:39.909Z,0.00
2022-11-25T02:54:07.227Z,0.00
2022-11-25T02:56:36.529Z,0.00
2022-11-25T02:59:03.864Z,0.00
2022-11-25T03:01:33.462Z,0.00
2022-11-25T03:04:00.344Z,0.00
2022-11-25T03:06:27.869Z,0.00
2022-11-25T03:08:54.635Z,0.00
2022-11-25T03:11:21.542Z,0.00
2022-11-25T03:13:49.452Z,0.00
2022-11-25T03:16:16.258Z,0.00
2022-11-25T03:18:44.741Z,0.00
2022-11-25T03:21:11.513Z,0.00
2022-11-25T03:23:40.486Z,0.00
2022-11-25T03:26:07.415Z,0.00
2022-11-25T03:28:34.374Z,0.00
2022-11-25T03:31:01.134Z,0.00
2022-11-25T03:33:28.156Z,0.00
2022-11-25T03:35:56.271Z,0.00
2022-11-25T03:38:24.285Z,0.00
2022-11-25T03:40:51.019Z,0.00
2022-11-25T03:43:17.965Z,0.00
2022-11-25T03:45:47.971Z,0.00
2022-11-25T03:48:14.886Z,0.00
2022-11-25T03:50:41.749Z,0.00
2022-11-25T03:53:10.171Z,0.03
2022-11-25T03:55:37.028Z,0.02
2022-11-25T03:58:03.846Z,0.01
2022-11-25T04:00:30.770Z,0.00
2022-11-25T04:02:57.799Z,0.00
2022-11-25T04:05:25.709Z,0.00
2022-11-25T04:07:57.704Z,0.27
2022-11-25T04:10:26.439Z,0.14
2022-11-25T04:12:53.686Z,0.08
2022-11-25T04:15:20.625Z,0.04
2022-11-25T04:17:47.439Z,0.02
2022-11-25T04:20:14.678Z,0.01
2022-11-25T04:22:41.524Z,0.01
2022-11-25T04:25:09.223Z,0.00
2022-11-25T04:27:37.362Z,0.00
2022-11-25T04:30:06.083Z,0.00
2022-11-25T04:32:32.847Z,0.00
2022-11-25T04:34:59.858Z,0.00
2022-11-25T04:37:26.612Z,0.00
2022-11-25T04:39:53.366Z,0.00
2022-11-25T04:42:20.378Z,0.00
2022-11-25T04:45:07.285Z,0.00
2022-11-25T04:47:35.990Z,0.00
2022-11-25T04:50:03.450Z,0.00
2022-11-25T04:52:30.210Z,0.00
2022-11-25T04:54:56.946Z,0.05
2022-11-25T04:57:23.856Z,0.02
2022-11-25T04:59:52.073Z,0.01
2022-11-25T05:02:21.589Z,0.01
2022-11-25T05:04:49.700Z,0.00
2022-11-25T05:07:19.160Z,0.00
2022-11-25T05:09:46.221Z,0.00
2022-11-25T05:12:18.216Z,0.00
2022-11-25T05:14:45.406Z,0.00
2022-11-25T05:17:17.126Z,0.00
2022-11-25T05:19:43.981Z,0.00
2022-11-25T05:22:11.834Z,0.00
2022-11-25T05:24:39.078Z,0.00
2022-11-25T05:27:06.277Z,0.56
2022-11-25T05:29:34.293Z,5.31
2022-11-25T05:32:01.218Z,19.68
2022-11-25T05:34:29.508Z,25.05
2022-11-25T05:36:58.021Z,19.10
2022-11-25T05:39:25.027Z,11.03
2022-11-25T05:41:51.801Z,5.87
2022-11-25T05:44:22.953Z,3.16
2022-11-25T05:46:50.153Z,2.00
2022-11-25T05:49:18.055Z,1.06
2022-11-25T05:51:46.755Z,0.57
2022-11-25T05:54:14.701Z,0.30
2022-11-25T05:56:41.601Z,0.16
2022-11-25T05:59:09.793Z,0.08
2022-11-25T06:01:36.557Z,0.05
2022-11-25T06:04:06.361Z,0.02
2022-11-25T06:06:33.231Z,0.01
2022-11-25T06:09:01.733Z,0.12
2022-11-25T06:11:28.624Z,0.16
2022-11-25T06:13:57.215Z,0.14
2022-11-25T06:16:25.429Z,0.24
2022-11-25T06:18:52.929Z,0.31
2022-11-25T06:21:20.307Z,0.21
2022-11-25T06:23:47.404Z,0.16
2022-11-25T06:26:17.147Z,0.13
2022-11-25T06:28:44.269Z,0.16
2022-11-25T06:31:14.041Z,0.23
2022-11-25T06:33:41.503Z,0.12
2022-11-25T06:36:10.539Z,0.06
2022-11-25T06:38:37.316Z,0.22
2022-11-25T06:41:06.061Z,0.26
2022-11-25T06:43:34.316Z,0.18
2022-11-25T06:46:05.739Z,0.10
2022-11-25T06:48:33.042Z,0.05
2022-11-25T06:51:02.558Z,0.12
2022-11-25T06:53:30.603Z,0.10
2022-11-25T06:56:11.283Z,0.05
2022-11-25T06:58:40.313Z,0.03
2022-11-25T07:01:13.007Z,0.01
2022-11-25T07:03:40.609Z,0.89
2022-11-25T07:06:08.724Z,0.98
2022-11-25T07:08:36.824Z,1.08
2022-11-25T07:11:05.774Z,0.72
2022-11-25T07:13:34.235Z,0.43
2022-11-25T07:16:05.354Z,0.35
2022-11-25T07:18:36.200Z,0.19
2022-11-25T07:21:06.239Z,0.19
2022-11-25T07:23:33.994Z,0.10
2022-11-25T07:26:07.159Z,0.05
2022-11-25T07:28:36.520Z,0.03
2022-11-25T07:34:02.164Z,0.01
2022-11-25T07:36:30.586Z,0.06
2022-11-25T07:39:00.134Z,0.14
2022-11-25T07:41:28.611Z,0.26
2022-11-25T07:43:58.467Z,0.51
2022-11-25T07:46:29.354Z,1.30
2022-11-25T07:49:01.794Z,2.32
2022-11-25T07:51:31.810Z,2.82
2022-11-25T07:54:00.575Z,7.34
2022-11-25T07:56:29.817Z,8.54
2022-11-25T07:58:57.782Z,10.30
2022-11-25T08:01:27.000Z,10.47
2022-11-25T08:03:56.025Z,9.59
2022-11-25T08:06:26.867Z,9.51
2022-11-25T08:08:54.663Z,13.53
2022-11-25T08:11:24.958Z,13.12
2022-11-25T08:13:54.283Z,10.22
2022-11-25T08:16:23.535Z,8.99
2022-11-25T08:18:52.372Z,8.64
2022-11-25T08:21:20.573Z,7.25
2022-11-25T08:23:49.004Z,5.12
2022-11-25T08:26:18.863Z,3.88
2022-11-25T08:28:47.451Z,2.48
2022-11-25T08:31:18.326Z,1.70
2022-11-25T08:33:48.752Z,2.61
2022-11-25T08:36:19.528Z,2.12
2022-11-25T08:38:48.508Z,1.31
2022-11-25T08:41:18.356Z,0.88
2022-11-25T08:43:45.657Z,0.56
2022-11-25T08:46:15.795Z,0.39
2022-11-25T08:48:42.938Z,0.30
2022-11-25T08:51:14.622Z,0.40
2022-11-25T08:53:43.686Z,0.53
2022-11-25T08:56:11.213Z,0.37
2022-11-25T08:58:39.006Z,0.25
2022-11-25T09:01:07.220Z,0.22
2022-11-25T09:03:36.177Z,0.17
2022-11-25T09:06:04.037Z,0.32
2022-11-25T09:08:32.578Z,1.64
2022-11-25T09:11:01.662Z,1.04
2022-11-25T09:13:29.764Z,0.69
2022-11-25T09:15:58.265Z,0.46
2022-11-25T09:18:25.599Z,0.29
2022-11-25T09:20:54.490Z,0.20
2022-11-25T09:23:21.542Z,0.15
2022-11-25T09:25:51.585Z,0.24
2022-11-25T09:28:21.204Z,0.27
2022-11-25T09:30:49.872Z,0.28
2022-11-25T09:33:35.546Z,0.29
2022-11-25T09:36:05.413Z,0.25
2022-11-25T09:38:34.886Z,0.19
2022-11-25T09:41:08.432Z,0.15
2022-11-25T09:43:51.771Z,0.22
2022-11-25T09:46:35.448Z,0.21
2022-11-25T09:49:11.866Z,0.25
2022-11-25T09:51:55.402Z,0.50
2022-11-25T09:54:29.847Z,0.38
2022-11-25T09:59:39.132Z,0.38
2022-11-25T10:02:27.317Z,0.34
2022-11-25T10:05:03.270Z,0.37
2022-11-25T10:07:36.835Z,0.30
2022-11-25T10:10:07.131Z,0.36
2022-11-25T10:12:38.858Z,0.33
2022-11-25T10:15:16.519Z,0.36
2022-11-25T10:17:47.112Z,0.38
2022-11-25T10:20:20.249Z,0.83
2022-11-25T10:22:50.388Z,0.93
2022-11-25T10:25:22.101Z,0.78
2022-11-25T10:27:53.033Z,0.73
2022-11-25T10:30:23.222Z,0.58
2022-11-25T10:32:57.880Z,0.54
2022-11-25T10:35:34.054Z,0.57
2022-11-25T10:38:03.581Z,0.54
2022-11-25T10:40:33.479Z,0.70
2022-11-25T10:43:02.792Z,0.56
2022-11-25T10:45:41.005Z,0.44
2022-11-25T10:48:19.630Z,0.37
2022-11-25T10:51:03.073Z,0.39
2022-11-25T10:53:30.055Z,0.35
2022-11-25T10:56:00.446Z,0.33
2022-11-25T10:58:31.295Z,0.31
2022-11-25T11:01:21.024Z,0.31
2022-11-25T11:03:53.334Z,0.46
2022-11-25T11:06:32.808Z,0.57
2022-11-25T11:08:59.833Z,0.59
2022-11-25T11:11:28.174Z,0.59
2022-11-25T11:14:12.393Z,0.50
2022-11-25T11:16:42.526Z,0.45
2022-11-25T11:19:21.915Z,0.43
2022-11-25T11:21:51.314Z,0.37
2022-11-25T11:24:27.271Z,0.34
2022-11-25T11:27:06.797Z,0.32
2022-11-25T11:29:34.094Z,0.41
2022-11-25T11:32:04.832Z,0.38
2022-11-25T11:34:53.164Z,0.36
2022-11-25T11:37:34.040Z,0.43
2022-11-25T11:40:25.067Z,0.40
2022-11-25T11:43:02.719Z,0.65
2022-11-25T11:45:42.513Z,0.62
2022-11-25T11:48:21.946Z,0.80
2022-11-25T11:50:51.362Z,0.92
2022-11-25T11:53:25.782Z,0.74
2022-11-25T11:56:32.992Z,0.65
2022-11-25T11:58:59.905Z,0.70
2022-11-25T12:01:41.983Z,0.56
2022-11-25T12:04:17.907Z,0.53
2022-11-25T12:06:54.384Z,0.56
2022-11-25T12:09:26.044Z,0.59
2022-11-25T12:12:00.547Z,0.58
2022-11-25T12:14:39.358Z,0.89
2022-11-25T12:17:14.721Z,0.85
2022-11-25T12:19:55.001Z,0.64
2022-11-25T12:22:28.613Z,0.58
2022-11-25T12:25:04.364Z,0.49
2022-11-25T12:27:35.391Z,0.66
2022-11-25T12:30:06.303Z,0.59
2022-11-25T12:32:52.029Z,0.69
2022-11-25T12:35:31.247Z,0.65
2022-11-25T12:38:05.263Z,0.53
2022-11-25T12:43:15.219Z,0.54
2022-11-25T12:45:47.012Z,0.56
2022-11-25T12:48:18.575Z,0.76
2022-11-25T12:51:03.063Z,0.70
2022-11-25T12:53:38.780Z,0.77
2022-11-25T12:56:14.335Z,0.86
2022-11-25T12:58:54.020Z,0.99
2022-11-25T13:01:46.749Z,1.02
2022-11-25T13:04:50.692Z,1.11
2022-11-25T13:07:34.306Z,1.02
2022-11-25T13:10:37.966Z,0.82
2022-11-25T13:13:26.150Z,0.76
2022-11-25T13:15:55.206Z,0.73
2022-11-25T13:18:29.078Z,0.80
2022-11-25T13:20:57.272Z,0.97
2022-11-25T13:23:32.156Z,1.02
2022-11-25T13:26:38.222Z,1.43
2022-11-25T13:30:01.554Z,1.21
2022-11-25T13:32:36.214Z,1.25
2022-11-25T13:35:51.545Z,1.02
2022-11-25T13:41:34.128Z,0.92
2022-11-25T13:44:06.776Z,0.80
2022-11-25T13:46:40.527Z,0.81
2022-11-25T13:49:28.639Z,0.85
2022-11-25T13:52:00.368Z,1.56
2022-11-25T13:54:37.700Z,2.69
2022-11-25T13:57:26.379Z,3.56
2022-11-25T13:59:57.554Z,3.98
2022-11-25T14:02:41.080Z,3.45
2022-11-25T14:05:27.002Z,2.18
2022-11-25T14:08:11.175Z,1.63
2022-11-25T14:10:51.676Z,1.16
2022-11-25T14:13:46.202Z,0.96
2022-11-25T14:16:36.286Z,1.21
2022-11-25T14:22:32.555Z,1.85
2022-11-25T14:25:16.740Z,1.94
2022-11-25T14:27:48.933Z,2.20
2022-11-25T14:30:17.685Z,1.96
2022-11-25T14:32:55.847Z,2.09
2022-11-25T14:35:30.533Z,2.42
2022-11-25T14:38:03.506Z,2.54
2022-11-25T14:40:37.569Z,2.24
2022-11-25T14:43:18.096Z,2.33
2022-11-25T14:45:46.412Z,2.31
2022-11-25T14:48:14.904Z,1.79
2022-11-25T14:50:54.667Z,1.61
2022-11-25T14:53:22.712Z,1.44
2022-11-25T14:55:50.372Z,1.43
2022-11-25T14:58:20.853Z,1.84
2022-11-25T15:00:53.825Z,2.64
2022-11-25T15:03:20.953Z,3.36
2022-11-25T15:05:56.551Z,3.14
2022-11-25T15:08:25.128Z,2.64
2022-11-25T15:10:58.238Z,2.04
2022-11-25T15:13:33.600Z,1.43
2022-11-25T15:16:08.689Z,1.08
2022-11-25T15:18:36.684Z,0.90
2022-11-25T15:21:06.129Z,0.65
2022-11-25T15:23:37.462Z,0.75
2022-11-25T15:26:15.717Z,1.00
2022-11-25T15:28:46.786Z,1.27
2022-11-25T15:31:20.677Z,0.97
2022-11-25T15:33:54.552Z,3.51
2022-11-25T15:38:51.462Z,2.75
2022-11-25T15:41:32.952Z,1.93
2022-11-25T15:44:03.851Z,1.65
2022-11-25T15:46:35.900Z,1.68
2022-11-25T15:49:06.152Z,1.13
2022-11-25T15:51:38.978Z,0.84
2022-11-25T15:54:17.280Z,1.04
2022-11-25T15:56:46.643Z,0.92
2022-11-25T15:59:46.289Z,1.64
2022-11-25T16:02:38.142Z,1.82
2022-11-25T16:05:25.035Z,1.26
2022-11-25T16:08:20.585Z,1.11
2022-11-25T16:10:58.263Z,1.99
2022-11-25T16:13:35.894Z,2.90
2022-11-25T16:16:15.429Z,3.20
2022-11-25T16:18:50.790Z,3.71
2022-11-25T16:21:20.446Z,2.45
2022-11-25T16:23:51.763Z,1.54
2022-11-25T16:26:24.949Z,3.75
2022-11-25T16:28:55.920Z,4.00
2022-11-25T16:31:25.042Z,2.36
2022-11-25T16:33:55.127Z,3.53
2022-11-25T16:36:22.192Z,4.73
2022-11-25T16:38:52.451Z,2.56
2022-11-25T16:41:22.286Z,1.41
2022-11-25T16:43:49.475Z,0.75
2022-11-25T16:46:18.853Z,0.40
2022-11-25T16:48:47.645Z,0.21
2022-11-25T16:51:16.767Z,0.11
2022-11-25T16:53:44.523Z,0.06
2022-11-25T16:56:15.023Z,0.03
2022-11-25T16:58:43.126Z,0.02
2022-11-25T17:01:34.819Z,0.01
2022-11-25T17:04:03.163Z,0.00
2022-11-25T17:06:30.168Z,0.00
2022-11-25T17:08:57.281Z,0.00
2022-11-25T17:11:28.311Z,0.01
2022-11-25T17:13:58.446Z,0.10
2022-11-25T17:16:33.148Z,0.10
2022-11-25T17:19:00.761Z,0.10
2022-11-25T17:21:29.412Z,0.05
2022-11-25T17:24:16.387Z,0.17
2022-11-25T17:26:46.967Z,0.15
2022-11-25T17:29:16.882Z,0.08
2022-11-25T17:31:51.305Z,0.04
2022-11-25T17:34:21.950Z,0.12
2022-11-25T17:36:50.395Z,0.42
2022-11-25T17:39:17.196Z,1.61
2022-11-25T17:41:46.068Z,1.38
2022-11-25T17:44:24.217Z,0.78
2022-11-25T17:46:51.229Z,0.77
2022-11-25T17:49:18.319Z,0.41
2022-11-25T17:51:45.777Z,0.26
2022-11-25T17:54:14.891Z,0.53
2022-11-25T17:56:46.486Z,1.14
2022-11-25T17:59:23.487Z,1.05
2022-11-25T18:01:50.451Z,0.71
2022-11-25T18:04:21.481Z,0.50
2022-11-25T18:06:48.471Z,0.26
2022-11-25T18:09:18.447Z,0.14
2022-11-25T18:11:48.488Z,0.07
2022-11-25T18:14:25.395Z,0.04
2022-11-25T18:16:53.319Z,0.02
2022-11-25T18:19:21.164Z,0.01
2022-11-25T18:21:47.983Z,0.10
2022-11-25T18:24:14.800Z,0.05
2022-11-25T18:26:45.118Z,0.08
2022-11-25T18:29:17.384Z,0.13
2022-11-25T18:31:44.241Z,0.14
2022-11-25T18:34:16.554Z,0.08
2022-11-25T18:36:45.280Z,0.10
2022-11-25T18:39:12.515Z,0.10
2022-11-25T18:41:42.001Z,0.05
2022-11-25T18:44:25.645Z,0.03
2022-11-25T18:46:53.782Z,0.02
2022-11-25T18:49:21.312Z,0.01
2022-11-25T18:51:48.154Z,0.00
2022-11-25T18:54:15.210Z,0.00
2022-11-25T18:56:43.301Z,0.00
2022-11-25T18:59:17.134Z,0.02
2022-11-25T19:01:49.626Z,0.15
2022-11-25T19:04:16.883Z,0.13
2022-11-25T19:06:44.078Z,0.09
2022-11-25T19:09:11.424Z,0.14
2022-11-25T19:11:41.764Z,0.85
2022-11-25T19:14:13.322Z,1.72
2022-11-25T19:16:43.199Z,2.28
2022-11-25T19:19:14.260Z,1.36
2022-11-25T19:21:41.716Z,0.77
2022-11-25T19:24:12.389Z,0.41
2022-11-25T19:26:44.096Z,0.31
2022-11-25T19:29:17.531Z,0.51
2022-11-25T19:31:47.180Z,0.55
2022-11-25T19:34:24.662Z,0.51
2022-11-25T19:36:51.860Z,0.32
2022-11-25T19:39:18.813Z,0.26
2022-11-25T19:41:47.227Z,0.14
2022-11-25T19:44:14.240Z,0.12
2022-11-25T19:47:13.730Z,0.11
2022-11-25T19:49:33.413Z,0.23
2022-11-25T19:52:00.361Z,0.32
2022-11-25T19:54:27.367Z,0.31
2022-11-25T19:56:54.320Z,0.21
2022-11-25T19:59:21.453Z,0.50
2022-11-25T20:01:51.041Z,0.45
2022-11-25T20:04:20.964Z,0.34
2022-11-25T20:06:48.794Z,0.28
2022-11-25T20:09:15.821Z,0.24
2022-11-25T20:11:43.250Z,0.27
2022-11-25T20:14:10.514Z,0.52
2022-11-25T20:16:40.963Z,0.47
2022-11-25T20:19:16.271Z,0.66
2022-11-25T20:21:43.461Z,0.44
2022-11-25T20:24:14.356Z,0.26
2022-11-25T20:26:42.548Z,0.18
2022-11-25T20:29:14.969Z,0.19
2022-11-25T20:31:41.870Z,0.23
2022-11-25T20:34:12.363Z,0.17
2022-11-25T20:36:40.929Z,0.14
2022-11-25T20:39:17.322Z,0.14
2022-11-25T20:41:48.196Z,0.07
2022-11-25T20:44:15.039Z,0.04
2022-11-25T20:46:42.025Z,0.02
2022-11-25T20:49:20.525Z,0.01
2022-11-25T20:51:47.575Z,0.05
2022-11-25T20:54:14.535Z,0.03
2022-11-25T20:56:41.563Z,0.01
2022-11-25T20:59:19.294Z,0.01
2022-11-25T21:01:46.359Z,0.00
2022-11-25T21:04:14.675Z,0.00
2022-11-25T21:06:42.245Z,0.00
2022-11-25T21:09:16.638Z,0.00
2022-11-25T21:11:44.672Z,0.00
2022-11-25T21:14:14.573Z,0.08
2022-11-25T21:16:41.701Z,0.04
2022-11-25T21:19:08.580Z,0.26
2022-11-25T21:21:39.566Z,0.14
2022-11-25T21:24:16.663Z,0.07
2022-11-25T21:26:43.683Z,0.04
2022-11-25T21:29:14.825Z,0.02
2022-11-25T21:31:41.857Z,0.01
2022-11-25T21:34:12.080Z,0.01
2022-11-25T21:36:41.530Z,0.00
2022-11-25T21:39:17.051Z,0.00
2022-11-25T21:41:44.020Z,0.00
2022-11-25T21:44:20.873Z,0.00
2022-11-25T21:46:47.730Z,0.00
2022-11-25T21:49:14.583Z,0.00
2022-11-25T21:51:42.955Z,0.09
2022-11-25T21:54:10.238Z,0.05
2022-11-25T21:56:37.703Z,0.03
2022-11-25T21:59:07.627Z,0.01
2022-11-25T22:01:34.465Z,0.01
2022-11-25T22:04:02.504Z,0.00
2022-11-25T22:06:30.376Z,0.00
2022-11-25T22:08:58.811Z,0.01
2022-11-25T22:11:30.629Z,0.01
2022-11-25T22:13:59.350Z,0.00
2022-11-25T22:16:30.137Z,0.00
2022-11-25T22:18:58.059Z,0.00
2022-11-25T22:21:24.991Z,0.00
2022-11-25T22:23:52.033Z,0.00
2022-11-25T22:26:27.263Z,0.00
2022-11-25T22:28:54.485Z,0.00
2022-11-25T22:31:23.226Z,0.00
2022-11-25T22:33:50.571Z,0.00
2022-11-25T22:36:30.145Z,0.00
2022-11-25T22:38:58.961Z,0.00
2022-11-25T22:41:27.186Z,0.00
2022-11-25T22:43:55.333Z,0.05
2022-11-25T22:46:22.205Z,0.07
2022-11-25T22:48:49.428Z,0.08
2022-11-25T22:51:18.379Z,0.25
2022-11-25T22:53:45.507Z,1.32
2022-11-25T22:56:17.556Z,1.20
2022-11-25T22:58:46.492Z,0.78
2022-11-25T23:01:16.689Z,0.51
2022-11-25T23:03:44.605Z,0.32
2022-11-25T23:06:13.070Z,0.26
2022-11-25T23:08:40.267Z,0.23
2022-11-25T23:11:14.662Z,0.16
2022-11-25T23:16:12.268Z,0.13
2022-11-25T23:18:40.845Z,0.12
2022-11-25T23:21:16.593Z,0.06
2022-11-25T23:23:43.434Z,0.26
2022-11-25T23:26:11.549Z,0.28
2022-11-25T23:28:38.483Z,0.31
2022-11-25T23:31:06.085Z,0.82
2022-11-25T23:33:37.059Z,4.64
2022-11-25T23:36:09.251Z,5.28
2022-11-25T23:38:41.491Z,4.91
2022-11-25T23:41:14.510Z,6.31
2022-11-25T23:43:41.326Z,5.72
2022-11-25T23:46:11.201Z,4.81
2022-11-25T23:48:39.984Z,4.19
2022-11-25T23:51:08.353Z,4.51
2022-11-25T23:53:39.165Z,4.80
2022-11-25T23:56:06.845Z,3.76
2022-11-25T23:58:33.822Z,2.67
